Arroyo Hondo, New Mexico
Current Conditions -  °F | °C
As of 7:35 AM on Monday 22 Dec 2014 (Local Time) from KSKX Reporting Station
Scattered Clouds Scattered Clouds  
Wind Chill: 24°   Ceiling: Unl
Heat Index: 34°   Visibility: 10mi
Dew Point: 28°   Wind: 14mph
Humidity: 81%   Direction: 220°SW
Pressure: 29.82"   Gusts: NA
Location:  36.53°N, 105.67°W
Report Text: KSKX 221435Z AUTO 22012KT 10SM SCT036 01/M02 A2982 RMK AO1
Loading
Personal Weather Stations






























Interactive Weather Map New forecast layout! Learn more

10-Day Weather Forecast

Advertisements
Track Severe Weather on mobile